sensor_id;sensor_type;location;lat;lon;timestamp;P1;durP1;ratioP1;P2;durP2;ratioP2
60203;SDS011;46068;52.132;4.618;2023-11-21T00:01:15;4.83;;;2.60;;
60203;SDS011;46068;52.132;4.618;2023-11-21T00:03:42;3.93;;;2.40;;
60203;SDS011;46068;52.132;4.618;2023-11-21T00:06:08;5.77;;;2.77;;
60203;SDS011;46068;52.132;4.618;2023-11-21T00:08:34;6.63;;;2.83;;
60203;SDS011;46068;52.132;4.618;2023-11-21T00:11:00;6.90;;;2.80;;
60203;SDS011;46068;52.132;4.618;2023-11-21T00:13:26;8.30;;;3.10;;
60203;SDS011;46068;52.132;4.618;2023-11-21T00:15:52;7.40;;;3.40;;
60203;SDS011;46068;52.132;4.618;2023-11-21T00:18:17;8.53;;;3.70;;
60203;SDS011;46068;52.132;4.618;2023-11-21T00:20:44;10.63;;;3.87;;
60203;SDS011;46068;52.132;4.618;2023-11-21T00:23:09;7.63;;;3.33;;
60203;SDS011;46068;52.132;4.618;2023-11-21T00:25:35;7.07;;;3.40;;
60203;SDS011;46068;52.132;4.618;2023-11-21T00:28:00;9.77;;;3.60;;
60203;SDS011;46068;52.132;4.618;2023-11-21T00:30:26;9.97;;;4.50;;
60203;SDS011;46068;52.132;4.618;2023-11-21T00:32:52;11.90;;;4.63;;
60203;SDS011;46068;52.132;4.618;2023-11-21T00:35:18;7.13;;;3.87;;
60203;SDS011;46068;52.132;4.618;2023-11-21T00:37:44;15.40;;;4.43;;
60203;SDS011;46068;52.132;4.618;2023-11-21T00:40:10;7.77;;;3.97;;
60203;SDS011;46068;52.132;4.618;2023-11-21T00:42:36;7.27;;;3.67;;
60203;SDS011;46068;52.132;4.618;2023-11-21T00:45:02;7.13;;;2.93;;
60203;SDS011;46068;52.132;4.618;2023-11-21T00:47:28;4.83;;;2.90;;
60203;SDS011;46068;52.132;4.618;2023-11-21T00:49:54;6.90;;;3.03;;
60203;SDS011;46068;52.132;4.618;2023-11-21T00:52:19;5.83;;;2.70;;
60203;SDS011;46068;52.132;4.618;2023-11-21T00:54:46;9.33;;;3.33;;
60203;SDS011;46068;52.132;4.618;2023-11-21T00:57:13;6.13;;;3.17;;
60203;SDS011;46068;52.132;4.618;2023-11-21T00:59:38;8.00;;;3.13;;
60203;SDS011;46068;52.132;4.618;2023-11-21T01:02:04;6.17;;;2.87;;
60203;SDS011;46068;52.132;4.618;2023-11-21T01:04:30;12.40;;;4.10;;
60203;SDS011;46068;52.132;4.618;2023-11-21T01:06:56;8.53;;;3.80;;
60203;SDS011;46068;52.132;4.618;2023-11-21T01:09:22;6.90;;;3.80;;
60203;SDS011;46068;52.132;4.618;2023-11-21T01:11:49;9.47;;;3.67;;
60203;SDS011;46068;52.132;4.618;2023-11-21T01:14:17;9.97;;;3.50;;
60203;SDS011;46068;52.132;4.618;2023-11-21T01:16:43;9.83;;;3.97;;
60203;SDS011;46068;52.132;4.618;2023-11-21T01:19:08;10.33;;;3.77;;
60203;SDS011;46068;52.132;4.618;2023-11-21T01:21:34;9.93;;;4.00;;
60203;SDS011;46068;52.132;4.618;2023-11-21T01:24:00;9.30;;;4.20;;
60203;SDS011;46068;52.132;4.618;2023-11-21T01:26:25;6.80;;;3.53;;
60203;SDS011;46068;52.132;4.618;2023-11-21T01:28:52;7.47;;;3.80;;
60203;SDS011;46068;52.132;4.618;2023-11-21T01:31:17;8.40;;;3.63;;
60203;SDS011;46068;52.132;4.618;2023-11-21T01:33:43;8.83;;;3.70;;
60203;SDS011;46068;52.132;4.618;2023-11-21T01:36:09;6.60;;;3.30;;
60203;SDS011;46068;52.132;4.618;2023-11-21T01:38:35;11.20;;;4.40;;
60203;SDS011;46068;52.132;4.618;2023-11-21T01:41:01;10.30;;;3.50;;
60203;SDS011;46068;52.132;4.618;2023-11-21T01:43:26;8.17;;;3.60;;
60203;SDS011;46068;52.132;4.618;2023-11-21T01:45:52;7.67;;;3.37;;
60203;SDS011;46068;52.132;4.618;2023-11-21T01:48:19;8.13;;;3.93;;
60203;SDS011;46068;52.132;4.618;2023-11-21T01:50:44;8.97;;;3.73;;
60203;SDS011;46068;52.132;4.618;2023-11-21T01:53:11;10.13;;;3.53;;
60203;SDS011;46068;52.132;4.618;2023-11-21T01:55:38;10.77;;;3.80;;
60203;SDS011;46068;52.132;4.618;2023-11-21T01:58:04;9.57;;;4.10;;
60203;SDS011;46068;52.132;4.618;2023-11-21T02:00:32;5.93;;;3.63;;
60203;SDS011;46068;52.132;4.618;2023-11-21T02:02:59;7.50;;;3.50;;
60203;SDS011;46068;52.132;4.618;2023-11-21T02:05:24;11.13;;;3.73;;
60203;SDS011;46068;52.132;4.618;2023-11-21T02:07:51;15.70;;;3.80;;
60203;SDS011;46068;52.132;4.618;2023-11-21T02:10:17;12.13;;;4.40;;
60203;SDS011;46068;52.132;4.618;2023-11-21T02:12:47;7.27;;;3.23;;
60203;SDS011;46068;52.132;4.618;2023-11-21T02:15:13;9.03;;;4.00;;
60203;SDS011;46068;52.132;4.618;2023-11-21T02:17:40;12.57;;;3.90;;
60203;SDS011;46068;52.132;4.618;2023-11-21T02:20:07;8.30;;;3.40;;
60203;SDS011;46068;52.132;4.618;2023-11-21T02:22:33;8.60;;;3.33;;
60203;SDS011;46068;52.132;4.618;2023-11-21T02:25:01;8.57;;;3.50;;
60203;SDS011;46068;52.132;4.618;2023-11-21T02:27:27;9.57;;;3.50;;
60203;SDS011;46068;52.132;4.618;2023-11-21T02:29:53;10.87;;;3.17;;
60203;SDS011;46068;52.132;4.618;2023-11-21T02:32:19;8.70;;;3.63;;
60203;SDS011;46068;52.132;4.618;2023-11-21T02:34:47;8.77;;;3.70;;
60203;SDS011;46068;52.132;4.618;2023-11-21T02:37:13;10.80;;;3.90;;
60203;SDS011;46068;52.132;4.618;2023-11-21T02:39:39;7.23;;;3.47;;
60203;SDS011;46068;52.132;4.618;2023-11-21T02:42:05;7.97;;;3.50;;
60203;SDS011;46068;52.132;4.618;2023-11-21T02:44:31;8.67;;;3.43;;
60203;SDS011;46068;52.132;4.618;2023-11-21T02:46:56;12.07;;;3.63;;
60203;SDS011;46068;52.132;4.618;2023-11-21T02:49:22;10.87;;;3.50;;
60203;SDS011;46068;52.132;4.618;2023-11-21T02:51:48;9.23;;;4.03;;
60203;SDS011;46068;52.132;4.618;2023-11-21T02:54:14;11.37;;;3.50;;
60203;SDS011;46068;52.132;4.618;2023-11-21T02:56:39;8.17;;;3.53;;
60203;SDS011;46068;52.132;4.618;2023-11-21T02:59:05;10.70;;;4.20;;
60203;SDS011;46068;52.132;4.618;2023-11-21T03:01:31;9.90;;;4.00;;
60203;SDS011;46068;52.132;4.618;2023-11-21T03:03:57;7.53;;;3.93;;
60203;SDS011;46068;52.132;4.618;2023-11-21T03:06:22;10.70;;;4.00;;
60203;SDS011;46068;52.132;4.618;2023-11-21T03:08:48;10.73;;;3.90;;
60203;SDS011;46068;52.132;4.618;2023-11-21T03:11:14;10.37;;;3.93;;
60203;SDS011;46068;52.132;4.618;2023-11-21T03:13:40;10.27;;;3.57;;
60203;SDS011;46068;52.132;4.618;2023-11-21T03:16:07;10.13;;;3.50;;
60203;SDS011;46068;52.132;4.618;2023-11-21T03:18:33;11.57;;;3.63;;
60203;SDS011;46068;52.132;4.618;2023-11-21T03:20:59;9.27;;;3.90;;
60203;SDS011;46068;52.132;4.618;2023-11-21T03:23:24;9.03;;;3.80;;
60203;SDS011;46068;52.132;4.618;2023-11-21T03:25:50;8.80;;;4.03;;
60203;SDS011;46068;52.132;4.618;2023-11-21T03:28:15;9.27;;;3.77;;
60203;SDS011;46068;52.132;4.618;2023-11-21T03:30:41;7.63;;;3.47;;
60203;SDS011;46068;52.132;4.618;2023-11-21T03:33:07;6.37;;;3.53;;
60203;SDS011;46068;52.132;4.618;2023-11-21T03:35:33;11.13;;;3.60;;
60203;SDS011;46068;52.132;4.618;2023-11-21T03:37:58;8.30;;;3.40;;
60203;SDS011;46068;52.132;4.618;2023-11-21T03:40:24;11.17;;;4.37;;
60203;SDS011;46068;52.132;4.618;2023-11-21T03:42:50;11.03;;;3.97;;
60203;SDS011;46068;52.132;4.618;2023-11-21T03:45:16;11.00;;;4.07;;
60203;SDS011;46068;52.132;4.618;2023-11-21T03:47:41;8.67;;;3.93;;
60203;SDS011;46068;52.132;4.618;2023-11-21T03:50:08;7.53;;;3.23;;
60203;SDS011;46068;52.132;4.618;2023-11-21T03:52:34;10.03;;;3.40;;
60203;SDS011;46068;52.132;4.618;2023-11-21T03:55:00;9.17;;;3.83;;
60203;SDS011;46068;52.132;4.618;2023-11-21T03:57:25;8.00;;;3.57;;
60203;SDS011;46068;52.132;4.618;2023-11-21T03:59:51;9.90;;;3.73;;
60203;SDS011;46068;52.132;4.618;2023-11-21T04:02:17;18.07;;;4.33;;
60203;SDS011;46068;52.132;4.618;2023-11-21T04:04:42;8.90;;;3.90;;
60203;SDS011;46068;52.132;4.618;2023-11-21T04:07:09;11.93;;;3.70;;
60203;SDS011;46068;52.132;4.618;2023-11-21T04:09:34;8.17;;;3.50;;
60203;SDS011;46068;52.132;4.618;2023-11-21T04:12:01;9.17;;;3.77;;
60203;SDS011;46068;52.132;4.618;2023-11-21T04:14:27;9.60;;;4.03;;
60203;SDS011;46068;52.132;4.618;2023-11-21T04:16:52;7.90;;;4.13;;
60203;SDS011;46068;52.132;4.618;2023-11-21T04:19:18;10.63;;;3.60;;
60203;SDS011;46068;52.132;4.618;2023-11-21T04:21:44;10.13;;;4.10;;
60203;SDS011;46068;52.132;4.618;2023-11-21T04:24:11;8.90;;;4.03;;
60203;SDS011;46068;52.132;4.618;2023-11-21T04:26:37;6.90;;;4.20;;
60203;SDS011;46068;52.132;4.618;2023-11-21T04:29:03;10.50;;;4.27;;
60203;SDS011;46068;52.132;4.618;2023-11-21T04:31:29;9.20;;;3.83;;
60203;SDS011;46068;52.132;4.618;2023-11-21T04:33:55;8.23;;;3.90;;
60203;SDS011;46068;52.132;4.618;2023-11-21T04:36:20;11.37;;;5.47;;
60203;SDS011;46068;52.132;4.618;2023-11-21T04:38:46;13.23;;;6.50;;
60203;SDS011;46068;52.132;4.618;2023-11-21T04:41:12;12.37;;;6.23;;
60203;SDS011;46068;52.132;4.618;2023-11-21T04:43:38;13.70;;;6.43;;
60203;SDS011;46068;52.132;4.618;2023-11-21T04:46:04;10.53;;;5.23;;
60203;SDS011;46068;52.132;4.618;2023-11-21T04:48:29;6.13;;;4.07;;
60203;SDS011;46068;52.132;4.618;2023-11-21T04:50:55;5.87;;;3.17;;
60203;SDS011;46068;52.132;4.618;2023-11-21T04:53:21;5.77;;;3.50;;
60203;SDS011;46068;52.132;4.618;2023-11-21T04:55:47;5.73;;;2.80;;
60203;SDS011;46068;52.132;4.618;2023-11-21T04:58:14;4.70;;;2.70;;
60203;SDS011;46068;52.132;4.618;2023-11-21T05:00:40;5.27;;;2.60;;
60203;SDS011;46068;52.132;4.618;2023-11-21T05:03:06;5.93;;;2.77;;
60203;SDS011;46068;52.132;4.618;2023-11-21T05:05:32;7.23;;;3.00;;
60203;SDS011;46068;52.132;4.618;2023-11-21T05:07:58;5.13;;;2.73;;
60203;SDS011;46068;52.132;4.618;2023-11-21T05:10:24;7.13;;;2.70;;
60203;SDS011;46068;52.132;4.618;2023-11-21T05:12:49;4.83;;;3.23;;
60203;SDS011;46068;52.132;4.618;2023-11-21T05:15:16;5.57;;;2.90;;
60203;SDS011;46068;52.132;4.618;2023-11-21T05:17:42;6.87;;;3.10;;
60203;SDS011;46068;52.132;4.618;2023-11-21T05:20:09;8.80;;;4.53;;
60203;SDS011;46068;52.132;4.618;2023-11-21T05:22:35;12.03;;;6.17;;
60203;SDS011;46068;52.132;4.618;2023-11-21T05:25:00;7.90;;;4.70;;
60203;SDS011;46068;52.132;4.618;2023-11-21T05:27:27;6.13;;;3.23;;
60203;SDS011;46068;52.132;4.618;2023-11-21T05:29:52;5.27;;;2.87;;
60203;SDS011;46068;52.132;4.618;2023-11-21T05:32:18;6.80;;;2.80;;
60203;SDS011;46068;52.132;4.618;2023-11-21T05:34:44;4.17;;;2.13;;
60203;SDS011;46068;52.132;4.618;2023-11-21T05:37:10;2.93;;;1.40;;
60203;SDS011;46068;52.132;4.618;2023-11-21T05:39:36;4.43;;;1.77;;
60203;SDS011;46068;52.132;4.618;2023-11-21T05:42:01;4.37;;;1.60;;
60203;SDS011;46068;52.132;4.618;2023-11-21T05:44:28;2.50;;;1.50;;
60203;SDS011;46068;52.132;4.618;2023-11-21T05:46:54;2.60;;;1.47;;
60203;SDS011;46068;52.132;4.618;2023-11-21T05:49:20;1.70;;;1.20;;
60203;SDS011;46068;52.132;4.618;2023-11-21T05:51:46;3.13;;;1.47;;
60203;SDS011;46068;52.132;4.618;2023-11-21T05:54:12;2.40;;;1.37;;
60203;SDS011;46068;52.132;4.618;2023-11-21T05:56:38;4.77;;;1.30;;
60203;SDS011;46068;52.132;4.618;2023-11-21T05:59:03;2.80;;;1.40;;
60203;SDS011;46068;52.132;4.618;2023-11-21T06:01:29;3.03;;;1.40;;
60203;SDS011;46068;52.132;4.618;2023-11-21T06:03:54;3.13;;;1.40;;
60203;SDS011;46068;52.132;4.618;2023-11-21T06:06:21;2.30;;;1.53;;
60203;SDS011;46068;52.132;4.618;2023-11-21T06:08:47;3.83;;;1.50;;
60203;SDS011;46068;52.132;4.618;2023-11-21T06:11:13;2.67;;;1.50;;
60203;SDS011;46068;52.132;4.618;2023-11-21T06:13:39;3.70;;;1.50;;
60203;SDS011;46068;52.132;4.618;2023-11-21T06:16:05;2.53;;;1.53;;
60203;SDS011;46068;52.132;4.618;2023-11-21T06:18:30;5.70;;;1.50;;
60203;SDS011;46068;52.132;4.618;2023-11-21T06:20:56;5.17;;;1.87;;
60203;SDS011;46068;52.132;4.618;2023-11-21T06:23:22;4.73;;;1.77;;
60203;SDS011;46068;52.132;4.618;2023-11-21T06:25:48;4.37;;;1.80;;
60203;SDS011;46068;52.132;4.618;2023-11-21T06:28:14;4.37;;;2.00;;
60203;SDS011;46068;52.132;4.618;2023-11-21T06:30:42;4.20;;;1.87;;
60203;SDS011;46068;52.132;4.618;2023-11-21T06:33:09;4.47;;;2.07;;
60203;SDS011;46068;52.132;4.618;2023-11-21T06:35:34;6.77;;;1.97;;
60203;SDS011;46068;52.132;4.618;2023-11-21T06:38:00;4.73;;;2.00;;
60203;SDS011;46068;52.132;4.618;2023-11-21T06:40:26;9.03;;;1.90;;
60203;SDS011;46068;52.132;4.618;2023-11-21T06:42:52;8.43;;;1.97;;
60203;SDS011;46068;52.132;4.618;2023-11-21T06:45:17;6.40;;;1.93;;
60203;SDS011;46068;52.132;4.618;2023-11-21T06:47:43;5.93;;;2.10;;
60203;SDS011;46068;52.132;4.618;2023-11-21T06:50:09;9.40;;;1.97;;
60203;SDS011;46068;52.132;4.618;2023-11-21T06:52:35;10.93;;;2.00;;
60203;SDS011;46068;52.132;4.618;2023-11-21T06:55:00;6.47;;;2.10;;
60203;SDS011;46068;52.132;4.618;2023-11-21T06:57:27;9.00;;;1.93;;
60203;SDS011;46068;52.132;4.618;2023-11-21T06:59:52;12.17;;;2.37;;
60203;SDS011;46068;52.132;4.618;2023-11-21T07:02:18;9.70;;;2.30;;
60203;SDS011;46068;52.132;4.618;2023-11-21T07:04:44;10.60;;;2.20;;
60203;SDS011;46068;52.132;4.618;2023-11-21T07:07:10;11.93;;;2.90;;
60203;SDS011;46068;52.132;4.618;2023-11-21T07:09:35;6.97;;;1.90;;
60203;SDS011;46068;52.132;4.618;2023-11-21T07:12:01;5.80;;;2.23;;
60203;SDS011;46068;52.132;4.618;2023-11-21T07:14:29;7.87;;;2.27;;
60203;SDS011;46068;52.132;4.618;2023-11-21T07:16:55;7.23;;;1.93;;
60203;SDS011;46068;52.132;4.618;2023-11-21T07:19:21;6.47;;;1.77;;
60203;SDS011;46068;52.132;4.618;2023-11-21T07:21:47;7.17;;;1.93;;
60203;SDS011;46068;52.132;4.618;2023-11-21T07:24:15;10.53;;;2.60;;
60203;SDS011;46068;52.132;4.618;2023-11-21T07:26:41;7.20;;;1.87;;
60203;SDS011;46068;52.132;4.618;2023-11-21T07:29:07;11.93;;;2.77;;
60203;SDS011;46068;52.132;4.618;2023-11-21T07:31:33;10.47;;;2.73;;
60203;SDS011;46068;52.132;4.618;2023-11-21T07:33:59;8.00;;;2.50;;
60203;SDS011;46068;52.132;4.618;2023-11-21T07:36:25;7.00;;;2.57;;
60203;SDS011;46068;52.132;4.618;2023-11-21T07:38:50;14.10;;;3.30;;
60203;SDS011;46068;52.132;4.618;2023-11-21T07:41:16;6.50;;;2.73;;
60203;SDS011;46068;52.132;4.618;2023-11-21T07:43:42;5.40;;;2.67;;
60203;SDS011;46068;52.132;4.618;2023-11-21T07:46:08;5.63;;;2.63;;
60203;SDS011;46068;52.132;4.618;2023-11-21T07:48:34;6.83;;;3.00;;
60203;SDS011;46068;52.132;4.618;2023-11-21T07:51:00;7.57;;;2.40;;
60203;SDS011;46068;52.132;4.618;2023-11-21T07:53:26;6.00;;;2.93;;
60203;SDS011;46068;52.132;4.618;2023-11-21T07:55:53;5.83;;;2.60;;
60203;SDS011;46068;52.132;4.618;2023-11-21T07:58:19;6.83;;;2.77;;
60203;SDS011;46068;52.132;4.618;2023-11-21T08:00:45;7.67;;;3.07;;
60203;SDS011;46068;52.132;4.618;2023-11-21T08:03:10;7.47;;;2.37;;
60203;SDS011;46068;52.132;4.618;2023-11-21T08:05:37;5.93;;;2.57;;
60203;SDS011;46068;52.132;4.618;2023-11-21T08:08:03;5.93;;;2.93;;
60203;SDS011;46068;52.132;4.618;2023-11-21T08:10:28;8.17;;;2.80;;
60203;SDS011;46068;52.132;4.618;2023-11-21T08:12:55;9.07;;;3.27;;
60203;SDS011;46068;52.132;4.618;2023-11-21T08:15:20;8.57;;;3.00;;
60203;SDS011;46068;52.132;4.618;2023-11-21T08:17:46;5.83;;;2.87;;
60203;SDS011;46068;52.132;4.618;2023-11-21T08:20:12;6.43;;;2.40;;
60203;SDS011;46068;52.132;4.618;2023-11-21T08:22:39;6.03;;;2.70;;
60203;SDS011;46068;52.132;4.618;2023-11-21T08:25:06;8.33;;;3.10;;
60203;SDS011;46068;52.132;4.618;2023-11-21T08:27:32;9.77;;;3.00;;
60203;SDS011;46068;52.132;4.618;2023-11-21T08:29:59;7.27;;;2.90;;
60203;SDS011;46068;52.132;4.618;2023-11-21T08:32:25;6.37;;;2.87;;
60203;SDS011;46068;52.132;4.618;2023-11-21T08:34:51;11.03;;;3.10;;
60203;SDS011;46068;52.132;4.618;2023-11-21T08:37:16;10.87;;;3.67;;
60203;SDS011;46068;52.132;4.618;2023-11-21T08:39:43;8.80;;;3.40;;
60203;SDS011;46068;52.132;4.618;2023-11-21T08:42:09;8.40;;;3.33;;
60203;SDS011;46068;52.132;4.618;2023-11-21T08:44:35;7.57;;;3.90;;
60203;SDS011;46068;52.132;4.618;2023-11-21T08:47:00;9.63;;;3.90;;
60203;SDS011;46068;52.132;4.618;2023-11-21T08:49:26;7.93;;;3.87;;
60203;SDS011;46068;52.132;4.618;2023-11-21T08:51:54;9.27;;;4.20;;
60203;SDS011;46068;52.132;4.618;2023-11-21T08:54:20;10.50;;;4.80;;
60203;SDS011;46068;52.132;4.618;2023-11-21T08:56:46;12.67;;;4.83;;
60203;SDS011;46068;52.132;4.618;2023-11-21T08:59:12;8.77;;;4.60;;
60203;SDS011;46068;52.132;4.618;2023-11-21T09:01:39;11.80;;;4.77;;
60203;SDS011;46068;52.132;4.618;2023-11-21T09:04:05;10.20;;;4.67;;
60203;SDS011;46068;52.132;4.618;2023-11-21T09:06:31;8.57;;;4.63;;
60203;SDS011;46068;52.132;4.618;2023-11-21T09:08:57;8.73;;;4.90;;
60203;SDS011;46068;52.132;4.618;2023-11-21T09:11:23;13.07;;;5.30;;
60203;SDS011;46068;52.132;4.618;2023-11-21T09:13:50;11.43;;;5.00;;
60203;SDS011;46068;52.132;4.618;2023-11-21T09:16:16;10.20;;;5.67;;
60203;SDS011;46068;52.132;4.618;2023-11-21T09:18:42;10.43;;;5.60;;
60203;SDS011;46068;52.132;4.618;2023-11-21T09:21:07;9.73;;;5.67;;
60203;SDS011;46068;52.132;4.618;2023-11-21T09:23:34;9.67;;;5.57;;
60203;SDS011;46068;52.132;4.618;2023-11-21T09:25:59;13.00;;;5.73;;
60203;SDS011;46068;52.132;4.618;2023-11-21T09:28:26;8.93;;;5.83;;
60203;SDS011;46068;52.132;4.618;2023-11-21T09:30:52;10.03;;;6.03;;
60203;SDS011;46068;52.132;4.618;2023-11-21T09:33:18;11.80;;;5.83;;
60203;SDS011;46068;52.132;4.618;2023-11-21T09:35:44;10.13;;;5.50;;
60203;SDS011;46068;52.132;4.618;2023-11-21T09:38:09;8.97;;;5.57;;
60203;SDS011;46068;52.132;4.618;2023-11-21T09:40:36;10.40;;;5.80;;
60203;SDS011;46068;52.132;4.618;2023-11-21T09:43:02;12.33;;;5.70;;
60203;SDS011;46068;52.132;4.618;2023-11-21T09:45:34;9.30;;;5.13;;
60203;SDS011;46068;52.132;4.618;2023-11-21T09:48:01;8.13;;;4.93;;
60203;SDS011;46068;52.132;4.618;2023-11-21T09:50:27;11.57;;;5.47;;
60203;SDS011;46068;52.132;4.618;2023-11-21T09:53:03;9.27;;;5.33;;
60203;SDS011;46068;52.132;4.618;2023-11-21T09:55:35;12.37;;;5.30;;
60203;SDS011;46068;52.132;4.618;2023-11-21T09:58:02;10.97;;;6.00;;
60203;SDS011;46068;52.132;4.618;2023-11-21T10:00:28;13.33;;;6.80;;
60203;SDS011;46068;52.132;4.618;2023-11-21T10:02:57;12.13;;;6.80;;
60203;SDS011;46068;52.132;4.618;2023-11-21T10:05:24;12.83;;;6.33;;
60203;SDS011;46068;52.132;4.618;2023-11-21T10:07:50;9.93;;;6.00;;
60203;SDS011;46068;52.132;4.618;2023-11-21T10:10:17;11.00;;;6.33;;
60203;SDS011;46068;52.132;4.618;2023-11-21T10:12:43;12.67;;;6.67;;
60203;SDS011;46068;52.132;4.618;2023-11-21T10:15:13;11.90;;;6.10;;
60203;SDS011;46068;52.132;4.618;2023-11-21T10:17:41;17.77;;;6.53;;
60203;SDS011;46068;52.132;4.618;2023-11-21T10:20:10;11.20;;;6.37;;
60203;SDS011;46068;52.132;4.618;2023-11-21T10:22:39;13.47;;;6.40;;
60203;SDS011;46068;52.132;4.618;2023-11-21T10:25:06;12.63;;;6.93;;
60203;SDS011;46068;52.132;4.618;2023-11-21T10:27:33;11.83;;;6.60;;
60203;SDS011;46068;52.132;4.618;2023-11-21T10:30:00;14.80;;;7.37;;
60203;SDS011;46068;52.132;4.618;2023-11-21T10:32:27;14.57;;;7.90;;
60203;SDS011;46068;52.132;4.618;2023-11-21T10:34:56;14.27;;;7.80;;
60203;SDS011;46068;52.132;4.618;2023-11-21T10:37:22;14.77;;;8.67;;
60203;SDS011;46068;52.132;4.618;2023-11-21T10:39:49;12.60;;;7.07;;
60203;SDS011;46068;52.132;4.618;2023-11-21T10:42:15;14.30;;;7.50;;
60203;SDS011;46068;52.132;4.618;2023-11-21T10:44:43;14.47;;;7.83;;
60203;SDS011;46068;52.132;4.618;2023-11-21T10:47:11;14.77;;;7.73;;
60203;SDS011;46068;52.132;4.618;2023-11-21T10:49:37;13.33;;;7.63;;
60203;SDS011;46068;52.132;4.618;2023-11-21T10:52:03;14.67;;;7.97;;
60203;SDS011;46068;52.132;4.618;2023-11-21T10:54:29;12.70;;;7.70;;
60203;SDS011;46068;52.132;4.618;2023-11-21T10:56:56;12.80;;;8.03;;
60203;SDS011;46068;52.132;4.618;2023-11-21T10:59:22;14.40;;;7.97;;
60203;SDS011;46068;52.132;4.618;2023-11-21T11:01:50;10.97;;;6.70;;
60203;SDS011;46068;52.132;4.618;2023-11-21T11:04:17;16.57;;;7.47;;
60203;SDS011;46068;52.132;4.618;2023-11-21T11:06:43;15.27;;;7.27;;
60203;SDS011;46068;52.132;4.618;2023-11-21T11:09:09;13.20;;;6.93;;
60203;SDS011;46068;52.132;4.618;2023-11-21T11:11:38;13.90;;;6.60;;
60203;SDS011;46068;52.132;4.618;2023-11-21T11:14:06;12.13;;;6.47;;
60203;SDS011;46068;52.132;4.618;2023-11-21T11:16:32;13.97;;;6.87;;
60203;SDS011;46068;52.132;4.618;2023-11-21T11:18:58;11.67;;;6.07;;
60203;SDS011;46068;52.132;4.618;2023-11-21T11:21:26;11.67;;;6.17;;
60203;SDS011;46068;52.132;4.618;2023-11-21T11:23:58;10.50;;;5.67;;
60203;SDS011;46068;52.132;4.618;2023-11-21T11:26:31;10.90;;;6.03;;
60203;SDS011;46068;52.132;4.618;2023-11-21T11:29:03;8.73;;;5.10;;
60203;SDS011;46068;52.132;4.618;2023-11-21T11:31:49;9.67;;;5.07;;
60203;SDS011;46068;52.132;4.618;2023-11-21T11:34:19;10.67;;;6.13;;
60203;SDS011;46068;52.132;4.618;2023-11-21T11:36:49;11.60;;;6.40;;
60203;SDS011;46068;52.132;4.618;2023-11-21T11:39:28;13.50;;;6.60;;
60203;SDS011;46068;52.132;4.618;2023-11-21T11:41:55;9.97;;;5.80;;
60203;SDS011;46068;52.132;4.618;2023-11-21T11:47:06;15.53;;;8.17;;
60203;SDS011;46068;52.132;4.618;2023-11-21T11:49:38;12.37;;;6.70;;
60203;SDS011;46068;52.132;4.618;2023-11-21T11:52:31;9.47;;;5.73;;
60203;SDS011;46068;52.132;4.618;2023-11-21T11:54:57;9.03;;;5.37;;
60203;SDS011;46068;52.132;4.618;2023-11-21T11:57:23;10.80;;;5.80;;
60203;SDS011;46068;52.132;4.618;2023-11-21T12:00:06;8.47;;;4.93;;
60203;SDS011;46068;52.132;4.618;2023-11-21T12:02:35;9.57;;;4.83;;
60203;SDS011;46068;52.132;4.618;2023-11-21T12:05:06;9.17;;;5.00;;
60203;SDS011;46068;52.132;4.618;2023-11-21T12:07:39;9.60;;;5.43;;
60203;SDS011;46068;52.132;4.618;2023-11-21T12:10:05;10.73;;;5.63;;
60203;SDS011;46068;52.132;4.618;2023-11-21T12:12:30;10.27;;;5.07;;
60203;SDS011;46068;52.132;4.618;2023-11-21T12:14:57;10.83;;;5.53;;
60203;SDS011;46068;52.132;4.618;2023-11-21T12:17:23;9.13;;;5.63;;
60203;SDS011;46068;52.132;4.618;2023-11-21T12:19:50;8.97;;;5.00;;
60203;SDS011;46068;52.132;4.618;2023-11-21T12:22:17;8.23;;;5.10;;
60203;SDS011;46068;52.132;4.618;2023-11-21T12:24:43;9.30;;;5.50;;
60203;SDS011;46068;52.132;4.618;2023-11-21T12:27:09;11.27;;;6.20;;
60203;SDS011;46068;52.132;4.618;2023-11-21T12:29:35;8.87;;;5.23;;
60203;SDS011;46068;52.132;4.618;2023-11-21T12:32:03;9.57;;;5.67;;
60203;SDS011;46068;52.132;4.618;2023-11-21T12:34:29;8.50;;;5.10;;
60203;SDS011;46068;52.132;4.618;2023-11-21T12:36:56;9.13;;;5.43;;
60203;SDS011;46068;52.132;4.618;2023-11-21T12:39:22;8.60;;;5.20;;
60203;SDS011;46068;52.132;4.618;2023-11-21T12:41:48;9.97;;;5.47;;
60203;SDS011;46068;52.132;4.618;2023-11-21T12:44:13;9.30;;;5.70;;
60203;SDS011;46068;52.132;4.618;2023-11-21T12:46:41;8.13;;;5.10;;
60203;SDS011;46068;52.132;4.618;2023-11-21T12:49:06;14.40;;;5.47;;
60203;SDS011;46068;52.132;4.618;2023-11-21T12:51:32;9.10;;;5.17;;
60203;SDS011;46068;52.132;4.618;2023-11-21T12:53:59;9.57;;;5.13;;
60203;SDS011;46068;52.132;4.618;2023-11-21T12:56:25;8.80;;;5.60;;
60203;SDS011;46068;52.132;4.618;2023-11-21T12:58:53;9.43;;;5.20;;
60203;SDS011;46068;52.132;4.618;2023-11-21T13:01:19;8.83;;;5.50;;
60203;SDS011;46068;52.132;4.618;2023-11-21T13:03:47;9.73;;;5.37;;
60203;SDS011;46068;52.132;4.618;2023-11-21T13:06:14;9.07;;;5.20;;
60203;SDS011;46068;52.132;4.618;2023-11-21T13:08:39;9.43;;;5.50;;
60203;SDS011;46068;52.132;4.618;2023-11-21T13:11:06;11.50;;;5.30;;
60203;SDS011;46068;52.132;4.618;2023-11-21T13:13:32;9.90;;;5.23;;
60203;SDS011;46068;52.132;4.618;2023-11-21T13:15:59;9.17;;;5.30;;
60203;SDS011;46068;52.132;4.618;2023-11-21T13:18:26;9.17;;;4.90;;
60203;SDS011;46068;52.132;4.618;2023-11-21T13:20:52;8.93;;;5.80;;
60203;SDS011;46068;52.132;4.618;2023-11-21T13:23:18;9.73;;;5.10;;
60203;SDS011;46068;52.132;4.618;2023-11-21T13:25:44;9.93;;;5.77;;
60203;SDS011;46068;52.132;4.618;2023-11-21T13:28:11;10.20;;;5.37;;
60203;SDS011;46068;52.132;4.618;2023-11-21T13:30:37;9.00;;;5.37;;
60203;SDS011;46068;52.132;4.618;2023-11-21T13:33:05;10.63;;;5.23;;
60203;SDS011;46068;52.132;4.618;2023-11-21T13:35:32;8.87;;;5.40;;
60203;SDS011;46068;52.132;4.618;2023-11-21T13:38:03;10.37;;;5.90;;
60203;SDS011;46068;52.132;4.618;2023-11-21T13:40:30;9.00;;;5.63;;
60203;SDS011;46068;52.132;4.618;2023-11-21T13:42:56;9.37;;;5.77;;
60203;SDS011;46068;52.132;4.618;2023-11-21T13:45:25;9.20;;;5.87;;
60203;SDS011;46068;52.132;4.618;2023-11-21T13:47:51;11.30;;;6.33;;
60203;SDS011;46068;52.132;4.618;2023-11-21T13:50:17;12.67;;;5.87;;
60203;SDS011;46068;52.132;4.618;2023-11-21T13:52:47;10.37;;;5.60;;
60203;SDS011;46068;52.132;4.618;2023-11-21T13:55:13;12.53;;;6.60;;
60203;SDS011;46068;52.132;4.618;2023-11-21T13:57:41;11.17;;;6.10;;
60203;SDS011;46068;52.132;4.618;2023-11-21T14:00:10;15.73;;;6.93;;
60203;SDS011;46068;52.132;4.618;2023-11-21T14:02:56;11.97;;;7.00;;
60203;SDS011;46068;52.132;4.618;2023-11-21T14:05:25;13.30;;;7.33;;
60203;SDS011;46068;52.132;4.618;2023-11-21T14:07:54;14.73;;;7.83;;
60203;SDS011;46068;52.132;4.618;2023-11-21T14:10:21;12.37;;;7.53;;
60203;SDS011;46068;52.132;4.618;2023-11-21T14:12:49;19.13;;;9.60;;
60203;SDS011;46068;52.132;4.618;2023-11-21T14:15:15;17.17;;;8.87;;
60203;SDS011;46068;52.132;4.618;2023-11-21T14:17:43;15.70;;;8.30;;
60203;SDS011;46068;52.132;4.618;2023-11-21T14:20:10;13.73;;;7.80;;
60203;SDS011;46068;52.132;4.618;2023-11-21T14:22:40;11.67;;;7.13;;
60203;SDS011;46068;52.132;4.618;2023-11-21T14:25:06;13.63;;;8.57;;
60203;SDS011;46068;52.132;4.618;2023-11-21T14:27:32;14.13;;;7.63;;
60203;SDS011;46068;52.132;4.618;2023-11-21T14:29:58;16.07;;;7.93;;
60203;SDS011;46068;52.132;4.618;2023-11-21T14:32:24;10.73;;;6.87;;
60203;SDS011;46068;52.132;4.618;2023-11-21T14:34:50;12.67;;;7.13;;
60203;SDS011;46068;52.132;4.618;2023-11-21T14:37:17;13.00;;;7.63;;
60203;SDS011;46068;52.132;4.618;2023-11-21T14:39:42;11.07;;;6.60;;
60203;SDS011;46068;52.132;4.618;2023-11-21T14:42:11;10.70;;;6.23;;